MOL Commitment — V7AZ4 — position and weather

sailwx.info

Track history (hours):
 
Tides and Currents Weather Stations Pressure Air Temp Water Temp Dewpoint Dewpoint Depression Visibility Wind Speed Wind Dir Waves Ship Positions

MOL Commitment

Last reported at 2018-Feb-11 10:18 UTC. Time now 2018-Feb-20 11:18 UTC.
Position N 22°25' E 119°45'.
Warning: this ship's position is 9 days out of date.

Length 316 m; draft 8 m.

Type: Ship (hazmat cat A). MMSI: 538005100.

Date/timePositionNaut miles runAvg speedWind from/ knotsBaromVisibWave heightAir tempDewpointWater temp
2018-Feb-11 10:18N 22°25' E 119°45'516.5
2018-Feb-11 10:00N 22°26' E 119°50'917.4
2018-Feb-11 09:31N 22°29' E 119°59'918.0
2018-Feb-11 09:00N 22°31' E 120°08'917.2
2018-Feb-11 08:30N 22°33' E 120°17'2 3.8
2018-Feb-11 08:01N 22°34' E 120°19'0 0.0
2018-Feb-11 07:30N 22°34' E 120°19'0 0.0
2018-Feb-11 07:00N 22°34' E 120°19'0 0.0
2018-Feb-11 06:30N 22°34' E 120°19'0 0.0
2018-Feb-11 06:00N 22°34' E 120°19'0 0.0
2018-Feb-11 05:30N 22°34' E 120°19'0 0.0
2018-Feb-11 05:00N 22°34' E 120°19'0 0.0
2018-Feb-11 04:30N 22°34' E 120°19'0 0.0
2018-Feb-11 04:00N 22°34' E 120°19'0 0.0
2018-Feb-11 03:30N 22°34' E 120°19'0 0.0
2018-Feb-11 03:00N 22°34' E 120°19'0 0.0
2018-Feb-11 02:31N 22°34' E 120°19'3 5.5
2018-Feb-11 02:01N 22°33' E 120°16'5 9.8
2018-Feb-11 01:30N 22°31' E 120°11'611.3
2018-Feb-11 01:00N 22°36' E 120°08'713.9
2018-Feb-11 00:30N 22°41' E 120°03'815.4
2018-Feb-11 00:00N 22°48' E 119°59'917.2
2018-Feb-10 23:28N 22°57' E 119°56'816.9
2018-Feb-10 22:59N 23°05' E 119°55'817.5
2018-Feb-10 22:29N 23°14' E 119°56'817.1
2018-Feb-10 22:00N 23°22' E 119°57'917.0
2018-Feb-10 21:30N 23°31' E 119°58'117 5.7
2018-Feb-10 01:06N 25°13' E 121°01'216.2
2018-Feb-10 01:00N 25°13' E 121°02'816.4
2018-Feb-10 00:30N 25°16' E 121°11'816.8
2018-Feb-10 00:00N 25°19' E 121°20'816.7
2018-Feb-09 23:30N 25°20' E 121°29'816.2
2018-Feb-09 23:00N 25°20' E 121°38'416.7
2018-Feb-09 22:46N 25°18' E 121°41'517.6
2018-Feb-09 22:30N 25°15' E 121°45'6 0.8
2018-Feb-09 14:30N 25°09' E 121°45'3 6.1
2018-Feb-09 14:00N 25°12' E 121°45'  
2018-Feb-07 04:06N 34°09' E 138°20'217.6
2018-Feb-07 03:59N 34°10' E 138°22'916.9
2018-Feb-07 03:28N 34°15' E 138°31'2016.6
2018-Feb-07 02:16N 34°27' E 138°51'416.5
2018-Feb-07 02:00N 34°29' E 138°55'817.0
2018-Feb-07 01:30N 34°35' E 139°02'1117.9
2018-Feb-07 00:53N 34°44' E 139°10'717.8
2018-Feb-07 00:29N 34°50' E 139°16'917.5
2018-Feb-06 23:57N 34°55' E 139°24'1617.1
2018-Feb-06 23:00N 35°04' E 139°41'815.4
2018-Feb-06 22:30N 35°11' E 139°45'510.6
2018-Feb-06 22:00N 35°16' E 139°45'1111.3
2018-Feb-06 21:00N 35°28' E 139°48'9 8.6
2018-Feb-06 20:00N 35°36' E 139°47'0 0.0
2018-Feb-06 18:47N 35°36' E 139°47'0 0.0
2018-Feb-06 18:13N 35°36' E 139°47'0 0.0
2018-Feb-06 17:58N 35°36' E 139°47'0 0.0
2018-Feb-06 17:19N 35°36' E 139°47'0 0.0
2018-Feb-06 16:55N 35°36' E 139°47'0 0.0
2018-Feb-06 16:23N 35°36' E 139°47'0 0.0
2018-Feb-06 15:55N 35°36' E 139°47'0 0.0
2018-Feb-06 14:14N 35°36' E 139°47'0 0.0
2018-Feb-06 13:49N 35°36' E 139°47'0 0.0
2018-Feb-06 13:25N 35°36' E 139°47'0 0.0
2018-Feb-06 12:53N 35°36' E 139°47'0 0.0
2018-Feb-06 11:47N 35°36' E 139°47'0 0.0
2018-Feb-06 11:25N 35°36' E 139°47'0 0.0
2018-Feb-06 10:52N 35°36' E 139°47'0 0.0
2018-Feb-06 10:07N 35°36' E 139°47'0 0.0
2018-Feb-06 09:49N 35°36' E 139°47'0 0.0
2018-Feb-06 09:19N 35°36' E 139°47'0 0.0
2018-Feb-06 08:55N 35°36' E 139°47'0 0.0
2018-Feb-06 08:26N 35°36' E 139°47'5 4.1
2018-Feb-06 07:19N 35°34' E 139°52'0 0.0
2018-Feb-06 06:58N 35°34' E 139°52'0 0.1
2018-Feb-06 06:28N 35°34' E 139°52'0 0.1
2018-Feb-06 05:58N 35°34' E 139°52'0 0.0
2018-Feb-06 05:22N 35°34' E 139°52'0 0.0
2018-Feb-06 04:58N 35°34' E 139°52'0 0.1
2018-Feb-06 04:28N 35°34' E 139°52'0 0.1
2018-Feb-06 03:58N 35°34' E 139°52'0 0.1
2018-Feb-06 03:25N 35°34' E 139°52'0 0.2
2018-Feb-06 02:55N 35°34' E 139°52'0 0.1
2018-Feb-06 02:28N 35°34' E 139°52'0 0.0
2018-Feb-06 01:58N 35°34' E 139°52'0 0.1
2018-Feb-06 01:28N 35°34' E 139°52'0 0.1
2018-Feb-06 00:58N 35°34' E 139°52'0 0.0
2018-Feb-06 00:28N 35°34' E 139°52'0 0.0
2018-Feb-05 23:58N 35°34' E 139°52'0 0.2
2018-Feb-05 23:28N 35°34' E 139°52'0 0.0
2018-Feb-05 22:55N 35°34' E 139°52'0 0.2
2018-Feb-05 22:25N 35°34' E 139°52'0 0.1
2018-Feb-05 22:00N 35°34' E 139°52'9 8.7
2018-Feb-05 21:00N 35°26' E 139°47'5 3.4
2018-Feb-05 19:28N 35°24' E 139°41'0 0.0
2018-Feb-05 18:58N 35°24' E 139°41'0 0.0
2018-Feb-05 18:28N 35°24' E 139°41'0 0.0
2018-Feb-05 17:58N 35°24' E 139°41'0 0.0
2018-Feb-05 17:28N 35°24' E 139°41'0 0.0
2018-Feb-05 16:58N 35°24' E 139°41'0 0.0
2018-Feb-05 16:28N 35°24' E 139°41'0 0.0
2018-Feb-05 15:58N 35°24' E 139°41'0 0.0
2018-Feb-05 15:28N 35°24' E 139°41'0 0.0
2018-Feb-05 14:58N 35°24' E 139°41'0 0.0
2018-Feb-05 14:28N 35°24' E 139°41'0 0.0
2018-Feb-05 13:58N 35°24' E 139°41'0 0.0
2018-Feb-05 13:28N 35°24' E 139°41'0 0.0
2018-Feb-05 12:58N 35°24' E 139°41'0 0.0
2018-Feb-05 12:28N 35°24' E 139°41'0 0.0
2018-Feb-05 11:58N 35°24' E 139°41'0 0.0
2018-Feb-05 11:28N 35°24' E 139°41'0 0.0
2018-Feb-05 10:58N 35°24' E 139°41'0 0.0
2018-Feb-05 10:28N 35°24' E 139°41'1 1.0
2018-Feb-05 09:01N 35°25' E 139°42'0 0.1
2018-Feb-05 08:30N 35°25' E 139°42'0 0.0
2018-Feb-05 08:00N 35°25' E 139°42'0 0.0
2018-Feb-05 07:30N 35°25' E 139°42'0 0.0
2018-Feb-05 07:00N 35°25' E 139°42'0 0.0
2018-Feb-05 06:30N 35°25' E 139°42'0 0.1
2018-Feb-05 05:30N 35°25' E 139°42'0 0.4
2018-Feb-05 05:00N 35°25' E 139°42'4 7.0
2018-Feb-05 04:30N 35°21' E 139°43'612.6
2018-Feb-05 04:00N 35°16' E 139°46'612.0
2018-Feb-05 03:30N 35°10' E 139°46'3 6.6
2018-Feb-05 03:01N 35°07' E 139°45'4 7.5
2018-Feb-05 02:30N 35°04' E 139°41'510.7
2018-Feb-05 02:00N 35°01' E 139°36'510.6
2018-Feb-05 01:30N 34°58' E 139°31'811.2
2018-Feb-05 00:49N 34°53' E 139°24'411.4
2018-Feb-05 00:27N 34°50' E 139°20'611.5
2018-Feb-04 23:56N 34°45' E 139°16'611.0
2018-Feb-04 23:23N 34°40' E 139°12'410.7
2018-Feb-04 23:01N 34°37' E 139°09'611.2
2018-Feb-04 22:31N 34°33' E 139°04'611.3
2018-Feb-04 22:01N 34°30' E 138°58'710.8
2018-Feb-04 21:22N 34°30' E 138°50'510.8
2018-Feb-04 20:54N 34°30' E 138°44'1010.6
2018-Feb-04 19:59N 34°30' E 138°32'510.7
2018-Feb-04 19:29N 34°30' E 138°25'610.7
2018-Feb-04 18:57N 34°29' E 138°18'511.2
2018-Feb-04 18:30N 34°29' E 138°12'610.9
2018-Feb-04 18:00N 34°28' E 138°06'711.9
2018-Feb-04 17:25N 34°29' E 137°58'3212.1
2018-Feb-04 14:45N 34°29' E 137°18'2111.7
2018-Feb-04 12:57N 34°37' E 136°55'716.6
2018-Feb-04 12:30N 34°42' E 136°48'918.1
2018-Feb-04 12:00N 34°51' E 136°46'816.7
2018-Feb-04 11:30N 34°59' E 136°46'3 1.8
2018-Feb-04 10:00N 35°02' E 136°48'0 0.0
2018-Feb-04 09:00N 35°02' E 136°48'0 0.0
2018-Feb-04 08:30N 35°02' E 136°48'0 0.0
2018-Feb-04 08:00N 35°02' E 136°48'0 0.0
2018-Feb-04 07:30N 35°02' E 136°48'0 0.0
2018-Feb-04 07:00N 35°02' E 136°48'2 4.4
2018-Feb-04 06:30N 34°59' E 136°47'510.0
2018-Feb-04 06:01N 34°55' E 136°45'5 9.9
2018-Feb-04 05:30N 34°50' E 136°46'713.2
2018-Feb-04 05:00N 34°43' E 136°49'612.7
2018-Feb-04 04:30N 34°38' E 136°54'612.2
2018-Feb-04 04:00N 34°34' E 136°60'611.0
2018-Feb-04 03:28N 34°30' E 137°04'2812.4
2018-Feb-04 01:12N 34°05' E 136°49'315.4
2018-Feb-04 01:00N 34°03' E 136°46'3016.4
2018-Feb-03 23:12N 33°43' E 136°20'6313.5
2018-Feb-03 18:30N 33°47' E 135°04'917.4
2018-Feb-03 18:01N 33°54' E 134°58'1018.8
2018-Feb-03 17:30N 34°04' E 134°59'918.2
2018-Feb-03 17:01N 34°13' E 134°58'1615.9
2018-Feb-03 16:00N 34°27' E 135°07'918.2
2018-Feb-03 15:30N 34°34' E 135°14'612.6
2018-Feb-03 15:00N 34°40' E 135°15'0 0.6
2018-Feb-03 14:28N 34°40' E 135°14'0 0.0
2018-Feb-03 13:58N 34°40' E 135°14'0 0.0
2018-Feb-03 13:28N 34°40' E 135°14'0 0.0
2018-Feb-03 12:58N 34°40' E 135°14'0 0.0
2018-Feb-03 12:25N 34°40' E 135°14'0 0.0
2018-Feb-03 11:58N 34°40' E 135°14'0 0.0
2018-Feb-03 11:28N 34°40' E 135°14'0 0.0
2018-Feb-03 10:58N 34°40' E 135°14'0 0.0
2018-Feb-03 10:28N 34°40' E 135°14'0 0.0
2018-Feb-03 10:00N 34°40' E 135°14'1 2.4
2018-Feb-03 09:30N 34°39' E 135°15'4 7.5
2018-Feb-03 09:00N 34°38' E 135°20'3 7.0
2018-Feb-03 08:31N 34°39' E 135°24'0 0.0
2018-Feb-03 07:58N 34°39' E 135°24'0 0.0
2018-Feb-03 06:28N 34°39' E 135°24'0 0.0
2018-Feb-03 05:58N 34°39' E 135°24'0 0.0
2018-Feb-03 05:28N 34°39' E 135°24'0 0.0
2018-Feb-03 04:58N 34°39' E 135°24'0 0.0
2018-Feb-03 03:58N 34°39' E 135°24'0 0.1
2018-Feb-03 03:28N 34°39' E 135°24'0 0.0
2018-Feb-03 02:01N 34°39' E 135°24'0 0.0
2018-Feb-03 01:28N 34°39' E 135°24'0 0.1
2018-Feb-03 00:58N 34°39' E 135°24'0 0.1
2018-Feb-03 00:28N 34°39' E 135°24'0 0.0
2018-Feb-02 23:58N 34°39' E 135°24'0 0.1
2018-Feb-02 23:28N 34°39' E 135°24'0 0.2
2018-Feb-02 22:58N 34°39' E 135°24'3 6.8
2018-Feb-02 22:31N 34°37' E 135°21'611.9
2018-Feb-02 22:00N 34°33' E 135°16'714.3
2018-Feb-02 21:30N 34°28' E 135°09'817.0
2018-Feb-02 21:00N 34°21' E 135°03'816.2
2018-Feb-02 20:31N 34°14' E 134°59'611.3
2018-Feb-02 20:00N 34°08' E 134°59'9 9.0
2018-Feb-02 19:00N 33°59' E 134°57'611.4
2018-Feb-02 18:30N 33°54' E 134°55'611.2
2018-Feb-02 18:00N 33°48' E 134°54'610.9
2018-Feb-02 17:30N 33°43' E 134°53'510.9
2018-Feb-02 17:00N 33°37' E 134°52'610.9
2018-Feb-02 16:29N 33°32' E 134°51'  
Track history (hours):
 
Tides and Currents Weather Stations Pressure Air Temp Water Temp Dewpoint Dewpoint Depression Visibility Wind Speed Wind Dir Waves Ship Positions

MOL Commitment

Last reported at 2018-Feb-11 10:18 UTC. Time now 2018-Feb-20 11:18 UTC.
Position N 22°25' E 119°45'.
Warning: this ship's position is 9 days out of date.

Length 316 m; draft 8 m.

Type: Ship (hazmat cat A). MMSI: 538005100.

Date/timePositionNaut miles runAvg speedWind from/ knotsBaromVisibWave heightAir tempDewpointWater temp
2018-Feb-11 10:18N 22°25' E 119°45'516.5
2018-Feb-11 10:00N 22°26' E 119°50'917.4
2018-Feb-11 09:31N 22°29' E 119°59'918.0
2018-Feb-11 09:00N 22°31' E 120°08'917.2
2018-Feb-11 08:30N 22°33' E 120°17'2 3.8
2018-Feb-11 08:01N 22°34' E 120°19'0 0.0
2018-Feb-11 07:30N 22°34' E 120°19'0 0.0
2018-Feb-11 07:00N 22°34' E 120°19'0 0.0
2018-Feb-11 06:30N 22°34' E 120°19'0 0.0
2018-Feb-11 06:00N 22°34' E 120°19'0 0.0
2018-Feb-11 05:30N 22°34' E 120°19'0 0.0
2018-Feb-11 05:00N 22°34' E 120°19'0 0.0
2018-Feb-11 04:30N 22°34' E 120°19'0 0.0
2018-Feb-11 04:00N 22°34' E 120°19'0 0.0
2018-Feb-11 03:30N 22°34' E 120°19'0 0.0
2018-Feb-11 03:00N 22°34' E 120°19'0 0.0
2018-Feb-11 02:31N 22°34' E 120°19'3 5.5
2018-Feb-11 02:01N 22°33' E 120°16'5 9.8
2018-Feb-11 01:30N 22°31' E 120°11'611.3
2018-Feb-11 01:00N 22°36' E 120°08'713.9
2018-Feb-11 00:30N 22°41' E 120°03'815.4
2018-Feb-11 00:00N 22°48' E 119°59'917.2
2018-Feb-10 23:28N 22°57' E 119°56'816.9
2018-Feb-10 22:59N 23°05' E 119°55'817.5
2018-Feb-10 22:29N 23°14' E 119°56'817.1
2018-Feb-10 22:00N 23°22' E 119°57'917.0
2018-Feb-10 21:30N 23°31' E 119°58'117 5.7
2018-Feb-10 01:06N 25°13' E 121°01'216.2
2018-Feb-10 01:00N 25°13' E 121°02'816.4
2018-Feb-10 00:30N 25°16' E 121°11'816.8
2018-Feb-10 00:00N 25°19' E 121°20'816.7
2018-Feb-09 23:30N 25°20' E 121°29'816.2
2018-Feb-09 23:00N 25°20' E 121°38'416.7
2018-Feb-09 22:46N 25°18' E 121°41'517.6
2018-Feb-09 22:30N 25°15' E 121°45'6 0.8
2018-Feb-09 14:30N 25°09' E 121°45'3 6.1
2018-Feb-09 14:00N 25°12' E 121°45'  
2018-Feb-07 04:06N 34°09' E 138°20'217.6
2018-Feb-07 03:59N 34°10' E 138°22'916.9
2018-Feb-07 03:28N 34°15' E 138°31'2016.6
2018-Feb-07 02:16N 34°27' E 138°51'416.5
2018-Feb-07 02:00N 34°29' E 138°55'817.0
2018-Feb-07 01:30N 34°35' E 139°02'1117.9
2018-Feb-07 00:53N 34°44' E 139°10'717.8
2018-Feb-07 00:29N 34°50' E 139°16'917.5
2018-Feb-06 23:57N 34°55' E 139°24'1617.1
2018-Feb-06 23:00N 35°04' E 139°41'815.4
2018-Feb-06 22:30N 35°11' E 139°45'510.6
2018-Feb-06 22:00N 35°16' E 139°45'1111.3
2018-Feb-06 21:00N 35°28' E 139°48'9 8.6
2018-Feb-06 20:00N 35°36' E 139°47'0 0.0
2018-Feb-06 18:47N 35°36' E 139°47'0 0.0
2018-Feb-06 18:13N 35°36' E 139°47'0 0.0
2018-Feb-06 17:58N 35°36' E 139°47'0 0.0
2018-Feb-06 17:19N 35°36' E 139°47'0 0.0
2018-Feb-06 16:55N 35°36' E 139°47'0 0.0
2018-Feb-06 16:23N 35°36' E 139°47'0 0.0
2018-Feb-06 15:55N 35°36' E 139°47'0 0.0
2018-Feb-06 14:14N 35°36' E 139°47'0 0.0
2018-Feb-06 13:49N 35°36' E 139°47'0 0.0
2018-Feb-06 13:25N 35°36' E 139°47'0 0.0
2018-Feb-06 12:53N 35°36' E 139°47'0 0.0
2018-Feb-06 11:47N 35°36' E 139°47'0 0.0
2018-Feb-06 11:25N 35°36' E 139°47'0 0.0
2018-Feb-06 10:52N 35°36' E 139°47'0 0.0
2018-Feb-06 10:07N 35°36' E 139°47'0 0.0
2018-Feb-06 09:49N 35°36' E 139°47'0 0.0
2018-Feb-06 09:19N 35°36' E 139°47'0 0.0
2018-Feb-06 08:55N 35°36' E 139°47'0 0.0
2018-Feb-06 08:26N 35°36' E 139°47'5 4.1
2018-Feb-06 07:19N 35°34' E 139°52'0 0.0
2018-Feb-06 06:58N 35°34' E 139°52'0 0.1
2018-Feb-06 06:28N 35°34' E 139°52'0 0.1
2018-Feb-06 05:58N 35°34' E 139°52'0 0.0
2018-Feb-06 05:22N 35°34' E 139°52'0 0.0
2018-Feb-06 04:58N 35°34' E 139°52'0 0.1
2018-Feb-06 04:28N 35°34' E 139°52'0 0.1
2018-Feb-06 03:58N 35°34' E 139°52'0 0.1
2018-Feb-06 03:25N 35°34' E 139°52'0 0.2
2018-Feb-06 02:55N 35°34' E 139°52'0 0.1
2018-Feb-06 02:28N 35°34' E 139°52'0 0.0
2018-Feb-06 01:58N 35°34' E 139°52'0 0.1
2018-Feb-06 01:28N 35°34' E 139°52'0 0.1
2018-Feb-06 00:58N 35°34' E 139°52'0 0.0
2018-Feb-06 00:28N 35°34' E 139°52'0 0.0
2018-Feb-05 23:58N 35°34' E 139°52'0 0.2
2018-Feb-05 23:28N 35°34' E 139°52'0 0.0
2018-Feb-05 22:55N 35°34' E 139°52'0 0.2
2018-Feb-05 22:25N 35°34' E 139°52'0 0.1
2018-Feb-05 22:00N 35°34' E 139°52'9 8.7
2018-Feb-05 21:00N 35°26' E 139°47'5 3.4
2018-Feb-05 19:28N 35°24' E 139°41'0 0.0
2018-Feb-05 18:58N 35°24' E 139°41'0 0.0
2018-Feb-05 18:28N 35°24' E 139°41'0 0.0
2018-Feb-05 17:58N 35°24' E 139°41'0 0.0
2018-Feb-05 17:28N 35°24' E 139°41'0 0.0
2018-Feb-05 16:58N 35°24' E 139°41'0 0.0
2018-Feb-05 16:28N 35°24' E 139°41'0 0.0
2018-Feb-05 15:58N 35°24' E 139°41'0 0.0
2018-Feb-05 15:28N 35°24' E 139°41'0 0.0
2018-Feb-05 14:58N 35°24' E 139°41'0 0.0
2018-Feb-05 14:28N 35°24' E 139°41'0 0.0
2018-Feb-05 13:58N 35°24' E 139°41'0 0.0
2018-Feb-05 13:28N 35°24' E 139°41'0 0.0
2018-Feb-05 12:58N 35°24' E 139°41'0 0.0
2018-Feb-05 12:28N 35°24' E 139°41'0 0.0
2018-Feb-05 11:58N 35°24' E 139°41'0 0.0
2018-Feb-05 11:28N 35°24' E 139°41'0 0.0
2018-Feb-05 10:58N 35°24' E 139°41'0 0.0
2018-Feb-05 10:28N 35°24' E 139°41'1 1.0
2018-Feb-05 09:01N 35°25' E 139°42'0 0.1
2018-Feb-05 08:30N 35°25' E 139°42'0 0.0
2018-Feb-05 08:00N 35°25' E 139°42'0 0.0
2018-Feb-05 07:30N 35°25' E 139°42'0 0.0
2018-Feb-05 07:00N 35°25' E 139°42'0 0.0
2018-Feb-05 06:30N 35°25' E 139°42'0 0.1
2018-Feb-05 05:30N 35°25' E 139°42'0 0.4
2018-Feb-05 05:00N 35°25' E 139°42'4 7.0
2018-Feb-05 04:30N 35°21' E 139°43'612.6
2018-Feb-05 04:00N 35°16' E 139°46'612.0
2018-Feb-05 03:30N 35°10' E 139°46'3 6.6
2018-Feb-05 03:01N 35°07' E 139°45'4 7.5
2018-Feb-05 02:30N 35°04' E 139°41'510.7
2018-Feb-05 02:00N 35°01' E 139°36'510.6
2018-Feb-05 01:30N 34°58' E 139°31'811.2
2018-Feb-05 00:49N 34°53' E 139°24'411.4
2018-Feb-05 00:27N 34°50' E 139°20'611.5
2018-Feb-04 23:56N 34°45' E 139°16'611.0
2018-Feb-04 23:23N 34°40' E 139°12'410.7
2018-Feb-04 23:01N 34°37' E 139°09'611.2
2018-Feb-04 22:31N 34°33' E 139°04'611.3
2018-Feb-04 22:01N 34°30' E 138°58'710.8
2018-Feb-04 21:22N 34°30' E 138°50'510.8
2018-Feb-04 20:54N 34°30' E 138°44'1010.6
2018-Feb-04 19:59N 34°30' E 138°32'510.7
2018-Feb-04 19:29N 34°30' E 138°25'610.7
2018-Feb-04 18:57N 34°29' E 138°18'511.2
2018-Feb-04 18:30N 34°29' E 138°12'610.9
2018-Feb-04 18:00N 34°28' E 138°06'711.9
2018-Feb-04 17:25N 34°29' E 137°58'3212.1
2018-Feb-04 14:45N 34°29' E 137°18'2111.7
2018-Feb-04 12:57N 34°37' E 136°55'716.6
2018-Feb-04 12:30N 34°42' E 136°48'918.1
2018-Feb-04 12:00N 34°51' E 136°46'816.7
2018-Feb-04 11:30N 34°59' E 136°46'3 1.8
2018-Feb-04 10:00N 35°02' E 136°48'0 0.0
2018-Feb-04 09:00N 35°02' E 136°48'0 0.0
2018-Feb-04 08:30N 35°02' E 136°48'0 0.0
2018-Feb-04 08:00N 35°02' E 136°48'0 0.0
2018-Feb-04 07:30N 35°02' E 136°48'0 0.0
2018-Feb-04 07:00N 35°02' E 136°48'2 4.4
2018-Feb-04 06:30N 34°59' E 136°47'510.0
2018-Feb-04 06:01N 34°55' E 136°45'5 9.9
2018-Feb-04 05:30N 34°50' E 136°46'713.2
2018-Feb-04 05:00N 34°43' E 136°49'612.7
2018-Feb-04 04:30N 34°38' E 136°54'612.2
2018-Feb-04 04:00N 34°34' E 136°60'611.0
2018-Feb-04 03:28N 34°30' E 137°04'2812.4
2018-Feb-04 01:12N 34°05' E 136°49'315.4
2018-Feb-04 01:00N 34°03' E 136°46'3016.4
2018-Feb-03 23:12N 33°43' E 136°20'6313.5
2018-Feb-03 18:30N 33°47' E 135°04'917.4
2018-Feb-03 18:01N 33°54' E 134°58'1018.8
2018-Feb-03 17:30N 34°04' E 134°59'918.2
2018-Feb-03 17:01N 34°13' E 134°58'1615.9
2018-Feb-03 16:00N 34°27' E 135°07'918.2
2018-Feb-03 15:30N 34°34' E 135°14'612.6
2018-Feb-03 15:00N 34°40' E 135°15'0 0.6
2018-Feb-03 14:28N 34°40' E 135°14'0 0.0
2018-Feb-03 13:58N 34°40' E 135°14'0 0.0
2018-Feb-03 13:28N 34°40' E 135°14'0 0.0
2018-Feb-03 12:58N 34°40' E 135°14'0 0.0
2018-Feb-03 12:25N 34°40' E 135°14'0 0.0
2018-Feb-03 11:58N 34°40' E 135°14'0 0.0
2018-Feb-03 11:28N 34°40' E 135°14'0 0.0
2018-Feb-03 10:58N 34°40' E 135°14'0 0.0
2018-Feb-03 10:28N 34°40' E 135°14'0 0.0
2018-Feb-03 10:00N 34°40' E 135°14'1 2.4
2018-Feb-03 09:30N 34°39' E 135°15'4 7.5
2018-Feb-03 09:00N 34°38' E 135°20'3 7.0
2018-Feb-03 08:31N 34°39' E 135°24'0 0.0
2018-Feb-03 07:58N 34°39' E 135°24'0 0.0
2018-Feb-03 06:28N 34°39' E 135°24'0 0.0
2018-Feb-03 05:58N 34°39' E 135°24'0 0.0
2018-Feb-03 05:28N 34°39' E 135°24'0 0.0
2018-Feb-03 04:58N 34°39' E 135°24'0 0.0
2018-Feb-03 03:58N 34°39' E 135°24'0 0.1
2018-Feb-03 03:28N 34°39' E 135°24'0 0.0
2018-Feb-03 02:01N 34°39' E 135°24'0 0.0
2018-Feb-03 01:28N 34°39' E 135°24'0 0.1
2018-Feb-03 00:58N 34°39' E 135°24'0 0.1
2018-Feb-03 00:28N 34°39' E 135°24'0 0.0
2018-Feb-02 23:58N 34°39' E 135°24'0 0.1
2018-Feb-02 23:28N 34°39' E 135°24'0 0.2
2018-Feb-02 22:58N 34°39' E 135°24'3 6.8
2018-Feb-02 22:31N 34°37' E 135°21'611.9
2018-Feb-02 22:00N 34°33' E 135°16'714.3
2018-Feb-02 21:30N 34°28' E 135°09'817.0
2018-Feb-02 21:00N 34°21' E 135°03'816.2
2018-Feb-02 20:31N 34°14' E 134°59'611.3
2018-Feb-02 20:00N 34°08' E 134°59'9 9.0
2018-Feb-02 19:00N 33°59' E 134°57'611.4
2018-Feb-02 18:30N 33°54' E 134°55'611.2
2018-Feb-02 18:00N 33°48' E 134°54'610.9
2018-Feb-02 17:30N 33°43' E 134°53'510.9
2018-Feb-02 17:00N 33°37' E 134°52'610.9
2018-Feb-02 16:29N 33°32' E 134°51'  

Dump ship's entire track history